This is the latest recevied weather packets stored in our database for station/object AB0TJ. If no packets are shown the sender has not sent any weather packets the latest 1 day(s).
| Time | Temp. | Humidity | Pressure | Rain* | Wind** | Luminosity | Snow |
|---|---|---|---|---|---|---|---|
| 1777999881 | 20° C | 31% | 1007.5 hPa | 0 mm | 2.24 m/s, 332° | 645 W/m² | - |
| 1777999334 | 20° C | 31% | 1007.5 hPa | 0 mm | 0.89 m/s, 8° | 627 W/m² | - |
| 1777998824 | 20.56° C | 30% | 1007.8 hPa | 0 mm | 2.68 m/s, 287° | 604 W/m² | - |
| 1777998279 | 21.11° C | 28% | 1007.7 hPa | 0 mm | 1.34 m/s, 290° | 583 W/m² | - |
| 1777997714 | 21.11° C | 28% | 1007.8 hPa | 0 mm | 0 m/s | 558 W/m² | - |
| 1777997233 | 21.67° C | 27% | 1008.1 hPa | 0 mm | 1.34 m/s, 308° | 537 W/m² | - |
| 1777996632 | 20.56° C | 31% | 1007.1 hPa | 0 mm | 0.89 m/s, 84° | 517 W/m² | - |
| 1777996149 | 19.44° C | 35% | 1007.2 hPa | 0 mm | 1.34 m/s, 110° | 488 W/m² | - |
| 1777995664 | 18.33° C | 36% | 1007.2 hPa | 0 mm | 0.45 m/s, 147° | 464 W/m² | - |
| 1777995084 | 17.22° C | 40% | 1007.3 hPa | 0 mm | 0.89 m/s, 317° | 431 W/m² | - |
| 1777994559 | 16.67° C | 43% | 1008.1 hPa | 0 mm | 0.89 m/s, 323° | 406 W/m² | - |
| 1777994049 | 16.11° C | 46% | 1007.6 hPa | 0 mm | 0.89 m/s, 63° | 382 W/m² | - |
| 1777993512 | 15° C | 51% | 1007.7 hPa | 0 mm | 1.34 m/s, 301° | 352 W/m² | - |
| 1777992929 | 14.44° C | 55% | 1007.8 hPa | 0 mm | 0.45 m/s, 3° | 224 W/m² | - |
| 1777992406 | 13.89° C | 58% | 1008 hPa | 0 mm | 1.79 m/s, 295° | 289 W/m² | - |
| 1777991869 | 13.33° C | 62% | 1008.1 hPa | 0 mm | 0.45 m/s, 54° | 271 W/m² | - |
| 1777991289 | 12.22° C | 66% | 1008.2 hPa | 0 mm | 0.89 m/s, 300° | 263 W/m² | - |
| 1777990714 | 11.67° C | 68% | 1008.2 hPa | 0 mm | 0 m/s | 116 W/m² | - |
| 1777990192 | 11.11° C | 69% | 1008.2 hPa | 0 mm | 0 m/s | 115 W/m² | - |
| 1777989712 | 11.11° C | 70% | 1008.3 hPa | 0 mm | 0 m/s | 157 W/m² | - |
| 1777989159 | 10° C | 72% | 1008.3 hPa | 0 mm | 0 m/s | 120 W/m² | - |
| 1777988644 | 8.89° C | 76% | 1008.3 hPa | 0 mm | 0.45 m/s, 339° | 109 W/m² | - |
| 1777988152 | 8.33° C | 79% | 1008.2 hPa | 0 mm | 0 m/s | 74 W/m² | - |
| 1777987619 | 7.78° C | 81% | 1008.1 hPa | 0 mm | 1.34 m/s, 333° | 47 W/m² | - |
| 1777987032 | 7.22° C | 82% | 1008.1 hPa | 0 mm | 0 m/s | 32 W/m² | - |
* Rain latest hour (hover to see other rain measurements)
** Current wind speed in m/s (hover to see current wind gust speed)